createdAt,value
2023-05-12T00:02:55.192Z,7.07
2023-05-12T00:07:57.918Z,6.23
2023-05-12T00:13:00.533Z,6.90
2023-05-12T00:18:03.070Z,6.90
2023-05-12T00:23:05.911Z,5.37
2023-05-12T00:28:11.278Z,6.93
2023-05-12T00:33:13.979Z,6.57
2023-05-12T00:38:16.667Z,4.57
2023-05-12T00:43:19.441Z,6.23
2023-05-12T00:48:22.162Z,8.47
2023-05-12T00:53:27.771Z,15.97
2023-05-12T00:58:35.003Z,8.77
2023-05-12T01:03:37.734Z,6.37
2023-05-12T01:08:42.728Z,4.33
2023-05-12T01:13:45.581Z,4.70
2023-05-12T01:18:51.410Z,6.27
2023-05-12T01:23:59.105Z,3.70
2023-05-12T01:29:05.071Z,5.77
2023-05-12T01:34:07.561Z,4.50
2023-05-12T01:39:10.197Z,3.20
2023-05-12T01:44:12.600Z,3.67
2023-05-12T01:49:15.608Z,4.07
2023-05-12T01:54:18.446Z,4.17
2023-05-12T01:59:21.235Z,3.27
2023-05-12T02:04:24.122Z,4.67
2023-05-12T02:09:28.005Z,6.80
2023-05-12T02:14:35.108Z,7.90
2023-05-12T02:19:37.757Z,8.40
2023-05-12T02:24:41.915Z,6.20
2023-05-12T02:29:44.547Z,11.57
2023-05-12T02:34:47.902Z,15.73
2023-05-12T02:39:50.829Z,19.97
2023-05-12T02:44:54.456Z,10.47
2023-05-12T02:49:57.412Z,10.37
2023-05-12T02:55:00.208Z,7.50
2023-05-12T03:00:06.382Z,13.20
2023-05-12T03:05:11.610Z,15.10
2023-05-12T03:10:14.247Z,11.03
2023-05-12T03:15:16.842Z,21.17
2023-05-12T03:20:20.270Z,24.10
2023-05-12T03:25:23.037Z,17.63
2023-05-12T03:30:25.559Z,8.43
2023-05-12T03:35:28.163Z,7.67
2023-05-12T03:40:31.138Z,8.53
2023-05-12T03:45:33.931Z,15.23
2023-05-12T03:50:36.357Z,16.97
2023-05-12T03:55:38.982Z,22.37
2023-05-12T04:00:41.375Z,18.57
2023-05-12T04:05:43.880Z,16.30
2023-05-12T04:10:46.232Z,10.97
2023-05-12T04:15:49.739Z,14.00
2023-05-12T04:20:52.220Z,18.70
2023-05-12T04:25:54.581Z,9.07
2023-05-12T04:30:57.251Z,9.67
2023-05-12T04:36:00.503Z,9.00
2023-05-12T04:41:03.618Z,7.40
2023-05-12T04:46:06.548Z,7.87
2023-05-12T04:51:09.633Z,9.13
2023-05-12T04:56:12.814Z,9.13
2023-05-12T05:01:15.370Z,6.40
2023-05-12T05:06:18.560Z,8.47
2023-05-12T05:11:22.695Z,4.80
2023-05-12T05:16:25.708Z,7.23
2023-05-12T05:21:28.534Z,4.27
2023-05-12T05:26:32.301Z,4.87
2023-05-12T05:31:35.868Z,6.20
2023-05-12T05:36:38.493Z,4.60
2023-05-12T05:41:41.100Z,7.83
2023-05-12T05:46:44.495Z,5.50
2023-05-12T05:51:47.450Z,4.40
2023-05-12T05:56:51.566Z,4.30
2023-05-12T06:01:54.115Z,2.10
2023-05-12T06:06:56.737Z,4.93
2023-05-12T06:11:59.207Z,3.60
2023-05-12T06:17:01.632Z,6.47
2023-05-12T06:22:04.263Z,2.10
2023-05-12T06:27:07.048Z,5.93
2023-05-12T06:32:09.797Z,2.90
2023-05-12T06:37:12.375Z,3.67
2023-05-12T06:42:16.336Z,6.13
2023-05-12T06:47:19.735Z,4.00
2023-05-12T06:52:24.302Z,5.97
2023-05-12T06:57:26.800Z,5.67
2023-05-12T07:02:30.159Z,4.73
2023-05-12T07:07:33.130Z,3.13
2023-05-12T07:12:35.661Z,3.17
2023-05-12T07:17:38.718Z,4.40
2023-05-12T07:22:41.329Z,2.10
2023-05-12T07:27:43.862Z,4.17
2023-05-12T07:32:46.866Z,4.57
2023-05-12T07:37:49.233Z,5.03
2023-05-12T07:42:54.630Z,7.57
2023-05-12T07:47:57.054Z,3.63
2023-05-12T07:52:59.516Z,3.33
2023-05-12T07:58:02.879Z,5.10
2023-05-12T08:03:07.052Z,8.13
2023-05-12T08:08:16.950Z,4.40
2023-05-12T08:13:19.869Z,6.10
2023-05-12T08:18:22.363Z,3.67
2023-05-12T08:23:24.808Z,3.63
2023-05-12T08:28:27.474Z,3.35
2023-05-12T08:33:29.912Z,3.47
2023-05-12T08:38:33.006Z,3.47
2023-05-12T08:43:44.388Z,3.00
2023-05-12T08:48:49.949Z,3.37
2023-05-12T08:53:55.165Z,5.57
2023-05-12T08:58:57.811Z,5.68
2023-05-12T09:04:00.495Z,4.30
2023-05-12T09:09:03.887Z,3.50
2023-05-12T09:14:12.132Z,3.90
2023-05-12T09:19:19.827Z,4.35
2023-05-12T09:24:34.427Z,8.07
2023-05-12T09:29:42.475Z,6.70
2023-05-12T09:34:51.931Z,5.88
2023-05-12T09:40:07.193Z,5.80
2023-05-12T09:45:11.326Z,4.85
2023-05-12T09:50:13.812Z,5.45
2023-05-12T09:55:16.304Z,4.18
2023-05-12T10:00:34.493Z,2.67
2023-05-12T10:05:51.996Z,2.83
2023-05-12T10:10:57.145Z,5.22
2023-05-12T10:16:00.072Z,3.15
2023-05-12T10:21:03.306Z,5.97
2023-05-12T10:26:06.976Z,3.47
2023-05-12T10:31:10.666Z,3.30
2023-05-12T10:36:20.165Z,3.55
2023-05-12T10:41:33.253Z,2.40
2023-05-12T10:46:35.753Z,4.50
2023-05-12T10:51:38.213Z,3.50
2023-05-12T10:56:40.878Z,4.15
2023-05-12T11:02:03.625Z,2.80
2023-05-12T11:07:09.991Z,4.50
2023-05-12T11:12:14.283Z,7.32
2023-05-12T11:17:16.783Z,4.13
2023-05-12T11:22:21.858Z,5.05
2023-05-12T11:27:24.553Z,5.55
2023-05-12T11:32:28.988Z,4.10
2023-05-12T11:37:37.377Z,4.82
2023-05-12T11:42:42.151Z,4.72
2023-05-12T11:47:44.666Z,4.30
2023-05-12T11:52:47.222Z,4.82
2023-05-12T11:58:06.836Z,3.22
2023-05-12T12:03:14.453Z,3.17
2023-05-12T12:08:17.238Z,2.88
2023-05-12T12:13:22.000Z,4.63
2023-05-12T12:18:24.546Z,6.05
2023-05-12T12:23:27.163Z,4.75
2023-05-12T12:28:29.547Z,2.75
2023-05-12T12:33:32.001Z,2.90
2023-05-12T12:38:34.432Z,5.05
2023-05-12T12:43:36.947Z,16.63
2023-05-12T12:48:39.405Z,4.50
2023-05-12T12:53:44.175Z,4.38
2023-05-12T12:58:46.881Z,5.30
2023-05-12T13:03:49.416Z,3.88
2023-05-12T13:08:52.232Z,4.32
2023-05-12T13:13:56.085Z,5.90
2023-05-12T13:18:58.496Z,2.80
2023-05-12T13:24:01.087Z,3.75
2023-05-12T13:29:04.640Z,2.90
2023-05-12T13:34:07.270Z,3.25
2023-05-12T13:39:10.594Z,3.58
2023-05-12T13:44:13.018Z,3.30
2023-05-12T13:49:15.670Z,4.60
2023-05-12T13:54:18.086Z,3.92
2023-05-12T13:59:20.814Z,3.17
2023-05-12T14:04:23.130Z,3.08
2023-05-12T14:09:26.064Z,5.05
2023-05-12T14:14:28.520Z,8.25
2023-05-12T14:19:31.106Z,6.03
2023-05-12T14:24:33.599Z,5.47
2023-05-12T14:29:36.214Z,3.60
2023-05-12T14:34:38.748Z,5.05
2023-05-12T14:39:41.535Z,2.90
2023-05-12T14:44:44.102Z,4.75
2023-05-12T14:49:46.715Z,3.65
2023-05-12T14:54:49.177Z,3.78
2023-05-12T14:59:54.712Z,7.22
2023-05-12T15:04:57.196Z,2.83
2023-05-12T15:09:59.621Z,2.28
2023-05-12T15:15:04.370Z,2.65
2023-05-12T15:20:10.862Z,6.82
2023-05-12T15:25:13.282Z,4.78
2023-05-12T15:30:16.242Z,3.00
2023-05-12T15:35:19.467Z,4.40
2023-05-12T15:40:22.133Z,2.58
2023-05-12T15:45:24.582Z,3.03
2023-05-12T15:50:26.937Z,3.10
2023-05-12T15:55:30.304Z,3.30
2023-05-12T16:00:32.853Z,3.47
2023-05-12T16:05:38.217Z,3.35
2023-05-12T16:10:40.809Z,3.05
2023-05-12T16:15:43.393Z,3.40
2023-05-12T16:20:47.868Z,3.65
2023-05-12T16:25:51.425Z,3.33
2023-05-12T16:30:54.113Z,4.10
2023-05-12T16:35:56.641Z,5.82
2023-05-12T16:41:00.426Z,5.03
2023-05-12T16:46:04.518Z,16.03
2023-05-12T16:51:10.050Z,9.37
2023-05-12T16:56:12.676Z,9.57
2023-05-12T17:01:15.651Z,8.50
2023-05-12T17:06:18.375Z,11.30
2023-05-12T17:11:20.925Z,9.80
2023-05-12T17:16:23.590Z,7.30
2023-05-12T17:21:26.128Z,5.73
2023-05-12T17:26:29.651Z,5.93
2023-05-12T17:31:35.145Z,7.70
2023-05-12T17:36:37.769Z,10.37
2023-05-12T17:41:40.312Z,3.53
2023-05-12T17:46:42.788Z,6.87
2023-05-12T17:51:45.462Z,7.07
2023-05-12T17:56:49.044Z,6.43
2023-05-12T18:01:52.324Z,4.93
2023-05-12T18:06:55.403Z,4.70
2023-05-12T18:12:00.984Z,4.63
2023-05-12T18:17:03.568Z,7.77
2023-05-12T18:22:08.461Z,8.73
2023-05-12T18:27:11.161Z,11.00
2023-05-12T18:32:15.248Z,6.97
2023-05-12T18:37:17.953Z,6.97
2023-05-12T18:42:21.097Z,28.20
2023-05-12T18:47:23.673Z,37.80
2023-05-12T18:52:26.105Z,20.97
2023-05-12T18:57:28.653Z,12.33
2023-05-12T19:02:31.657Z,9.90
2023-05-12T19:07:34.346Z,14.63
2023-05-12T19:12:36.924Z,10.73
2023-05-12T19:17:41.355Z,9.10
2023-05-12T19:22:44.434Z,9.37
2023-05-12T19:27:46.968Z,11.83
2023-05-12T19:32:50.679Z,13.20
2023-05-12T19:37:55.627Z,13.07
2023-05-12T19:42:58.258Z,9.23
2023-05-12T19:48:00.899Z,17.17
2023-05-12T19:53:03.621Z,11.80
2023-05-12T19:58:06.103Z,11.83
2023-05-12T20:03:09.168Z,10.13
2023-05-12T20:08:11.936Z,11.63
2023-05-12T20:13:14.455Z,12.50
2023-05-12T20:18:17.349Z,14.10
2023-05-12T20:23:21.498Z,10.97
2023-05-12T20:28:24.445Z,10.23
2023-05-12T20:33:26.897Z,12.60
2023-05-12T20:38:30.475Z,8.53
2023-05-12T20:43:33.586Z,12.73
2023-05-12T20:48:35.948Z,11.83
2023-05-12T20:53:39.011Z,13.00
2023-05-12T20:58:41.793Z,13.93
2023-05-12T21:03:44.359Z,15.43
2023-05-12T21:08:47.591Z,13.10
2023-05-12T21:13:50.002Z,16.03
2023-05-12T21:18:52.577Z,16.17
2023-05-12T21:23:55.069Z,18.37
2023-05-12T21:28:58.054Z,12.50
2023-05-12T21:34:00.399Z,11.40
2023-05-12T21:39:03.027Z,13.37
2023-05-12T21:44:10.472Z,7.60
2023-05-12T21:49:14.654Z,17.67
2023-05-12T21:54:17.150Z,11.40
2023-05-12T21:59:19.655Z,8.50
2023-05-12T22:04:22.169Z,9.87
2023-05-12T22:09:24.601Z,11.17
2023-05-12T22:14:27.273Z,7.97
2023-05-12T22:19:29.701Z,7.13
2023-05-12T22:24:32.308Z,6.70
2023-05-12T22:29:34.930Z,10.23
2023-05-12T22:34:37.597Z,6.10
2023-05-12T22:39:40.086Z,6.70
2023-05-12T22:44:42.597Z,8.83
2023-05-12T22:49:45.154Z,6.77
2023-05-12T22:54:47.546Z,7.77
2023-05-12T22:59:50.218Z,7.90
2023-05-12T23:04:52.586Z,6.27
2023-05-12T23:09:55.062Z,6.63
2023-05-12T23:14:57.486Z,6.87
2023-05-12T23:20:00.095Z,5.57
2023-05-12T23:25:02.594Z,7.67
2023-05-12T23:30:07.628Z,5.83
2023-05-12T23:35:10.473Z,5.20
2023-05-12T23:40:13.077Z,6.70
2023-05-12T23:45:16.277Z,5.97
2023-05-12T23:50:18.860Z,14.27
2023-05-12T23:55:22.125Z,7.33
